Terminal Aerodrome Forecast
Issued by NWS

Home | Current Version | Previous Version | Text Only | Print | Product List | Glossary On
Versions: 1 2 3 4 5 6 7 8 9 10 11 12 13 14 15 16 17 18 19 20 21
305
FTUS42 KGSP 070537
TAFAND
TAF
KAND 070537Z 0706/0806 27004KT 3SM BR BKN003 OVC020
      TEMPO 0706/0709 1SM BR OVC002
     FM071200 VRB02KT 3SM BR BKN015
     FM071500 07003KT P6SM BKN040
     FM072000 17004KT P6SM BKN025
     FM080200 00000KT 4SM BR BKN025=

USA.gov is the U.S. government's official web portal to all federal, state and local government web resources and services.